createdAt,value
2018-06-13T00:00:16.848Z,99257.06
2018-06-13T00:02:44.418Z,99260.82
2018-06-13T00:05:12.601Z,99259.72
2018-06-13T00:07:40.506Z,99263.22
2018-06-13T00:10:08.716Z,99253.37
2018-06-13T00:12:36.342Z,99259.48
2018-06-13T00:15:06.270Z,99254.70
2018-06-13T00:17:34.779Z,99259.80
2018-06-13T00:20:02.391Z,99262.98
2018-06-13T00:22:30.415Z,99263.78
2018-06-13T00:24:57.980Z,99258.77
2018-06-13T00:27:25.539Z,99262.75
2018-06-13T00:29:53.563Z,99263.86
2018-06-13T00:32:22.029Z,99266.52
2018-06-13T00:34:49.605Z,99267.85
2018-06-13T00:37:18.326Z,99266.28
2018-06-13T00:39:49.247Z,99264.69
2018-06-13T00:42:16.814Z,99271.61
2018-06-13T00:44:44.355Z,99271.61
2018-06-13T00:47:12.294Z,99271.12
2018-06-13T00:49:39.850Z,99279.34
2018-06-13T00:52:07.418Z,99268.22
2018-06-13T00:54:35.001Z,99277.54
2018-06-13T00:57:02.985Z,99274.88
2018-06-13T00:59:30.546Z,99273.02
2018-06-13T01:01:58.106Z,99272.52
2018-06-13T01:04:25.711Z,99275.17
2018-06-13T01:06:53.599Z,99277.30
2018-06-13T01:09:22.349Z,99271.75
2018-06-13T01:11:49.922Z,99275.74
2018-06-13T01:14:18.588Z,99285.06
2018-06-13T01:16:46.148Z,99285.36
2018-06-13T01:19:14.498Z,99281.91
2018-06-13T01:21:42.437Z,99284.56
2018-06-13T01:24:10.034Z,99285.36
2018-06-13T01:26:37.614Z,99285.66
2018-06-13T01:29:05.169Z,99287.23
2018-06-13T01:31:33.142Z,99282.23
2018-06-13T01:34:00.715Z,99281.67
2018-06-13T01:36:29.166Z,99278.77
2018-06-13T01:38:56.729Z,99281.44
2018-06-13T01:41:24.579Z,99273.98
2018-06-13T01:43:54.241Z,99277.97
2018-06-13T01:46:21.814Z,99278.54
2018-06-13T01:48:50.168Z,99277.20
2018-06-13T01:51:17.712Z,99279.87
2018-06-13T01:53:45.270Z,99281.20
2018-06-13T01:56:12.831Z,99287.63
2018-06-13T01:58:41.652Z,99287.06
2018-06-13T02:01:09.207Z,99282.53
2018-06-13T02:03:36.789Z,99276.70
2018-06-13T02:06:04.699Z,99279.64
2018-06-13T02:08:32.314Z,99279.38
2018-06-13T02:10:59.894Z,99283.36
2018-06-13T02:13:27.481Z,99284.70
2018-06-13T02:15:55.351Z,99276.47
2018-06-13T02:18:22.990Z,99285.03
2018-06-13T02:20:50.563Z,99278.37
2018-06-13T02:23:19.171Z,99272.25
2018-06-13T02:25:47.451Z,99277.80
2018-06-13T02:28:15.002Z,99272.25
2018-06-13T02:30:42.974Z,99274.91
2018-06-13T02:33:10.515Z,99282.89
2018-06-13T02:35:38.102Z,99275.77
2018-06-13T02:38:06.195Z,99278.91
2018-06-13T02:40:34.856Z,99276.24
2018-06-13T02:43:02.407Z,99285.33
2018-06-13T02:45:29.959Z,99281.62
2018-06-13T02:47:57.826Z,99284.00
2018-06-13T02:50:25.416Z,99283.77
2018-06-13T02:52:53.522Z,99277.10
2018-06-13T02:55:21.439Z,99274.17
2018-06-13T02:57:49.006Z,99273.11
2018-06-13T03:00:16.572Z,99274.17
2018-06-13T03:02:44.131Z,99280.83
2018-06-13T03:05:12.073Z,99284.83
2018-06-13T03:07:39.647Z,99287.49
2018-06-13T03:10:07.215Z,99285.92
2018-06-13T03:12:35.328Z,99283.27
2018-06-13T03:15:02.952Z,99279.50
2018-06-13T03:17:31.714Z,99282.50
2018-06-13T03:19:59.327Z,99280.59
2018-06-13T03:22:26.922Z,99287.02
2018-06-13T03:24:54.502Z,99288.59
2018-06-13T03:27:22.055Z,99282.50
2018-06-13T03:29:49.926Z,99286.48
2018-06-13T03:32:17.504Z,99293.14
2018-06-13T03:34:45.074Z,99291.25
2018-06-13T03:37:12.951Z,99292.88
2018-06-13T03:39:40.515Z,99297.14
2018-06-13T03:42:08.084Z,99294.21
2018-06-13T03:44:35.659Z,99297.44
2018-06-13T03:47:04.148Z,99296.64
2018-06-13T03:49:31.776Z,99297.44
2018-06-13T03:51:59.376Z,99291.55
2018-06-13T03:54:27.414Z,99297.20
2018-06-13T03:56:55.731Z,99298.53
2018-06-13T03:59:23.315Z,99300.10
2018-06-13T04:01:50.967Z,99299.87
2018-06-13T04:04:19.855Z,99299.87
2018-06-13T04:06:47.435Z,99294.55
2018-06-13T04:09:16.073Z,99299.87
2018-06-13T04:11:45.391Z,99295.88
2018-06-13T04:14:12.962Z,99296.41
2018-06-13T04:16:40.555Z,99297.20
2018-06-13T04:19:08.123Z,99302.27
2018-06-13T04:21:36.355Z,99299.87
2018-06-13T04:24:03.915Z,99295.61
2018-06-13T04:26:32.184Z,99297.50
2018-06-13T04:28:59.822Z,99305.96
2018-06-13T04:31:27.835Z,99304.56
2018-06-13T04:33:55.469Z,99299.23
2018-06-13T04:36:23.894Z,99303.47
2018-06-13T04:38:53.527Z,99297.08
2018-06-13T04:41:21.618Z,99295.41
2018-06-13T04:43:49.199Z,99301.23
2018-06-13T04:46:18.561Z,99305.47
2018-06-13T04:48:46.834Z,99298.52
2018-06-13T04:51:14.395Z,99305.41
2018-06-13T04:53:43.234Z,99302.73
2018-06-13T04:56:10.870Z,99304.30
2018-06-13T04:58:38.661Z,99304.80
2018-06-13T05:01:06.570Z,99307.94
2018-06-13T05:03:35.279Z,99308.47
2018-06-13T05:06:02.882Z,99314.83
2018-06-13T05:08:30.812Z,99308.97
2018-06-13T05:10:58.417Z,99310.83
2018-06-13T05:13:25.997Z,99309.50
2018-06-13T05:15:54.813Z,99309.44
2018-06-13T05:18:22.398Z,99308.84
2018-06-13T05:20:49.974Z,99312.27
2018-06-13T05:23:17.982Z,99317.83
2018-06-13T05:25:45.555Z,99314.09
2018-06-13T05:28:13.142Z,99315.03
2018-06-13T05:30:41.230Z,99316.02
2018-06-13T05:33:08.825Z,99316.99
2018-06-13T05:35:36.667Z,99322.19
2018-06-13T05:38:05.130Z,99317.32
2018-06-13T05:40:32.730Z,99325.31
2018-06-13T05:43:01.376Z,99330.41
2018-06-13T05:45:29.410Z,99328.61
2018-06-13T05:47:57.126Z,99329.95
2018-06-13T05:50:24.721Z,99322.48
2018-06-13T05:52:52.357Z,99331.58
2018-06-13T05:55:21.909Z,99323.88
2018-06-13T05:57:49.966Z,99328.11
2018-06-13T06:00:17.641Z,99330.48
2018-06-13T06:02:45.437Z,99332.27
2018-06-13T06:05:13.437Z,99335.97
2018-06-13T06:07:43.355Z,99337.07
2018-06-13T06:10:10.971Z,99339.97
2018-06-13T06:12:39.783Z,99347.96
2018-06-13T06:15:09.329Z,99345.06
2018-06-13T06:17:37.586Z,99346.63
2018-06-13T06:20:06.266Z,99347.73
2018-06-13T06:22:35.476Z,99358.85
2018-06-13T06:25:03.072Z,99352.76
2018-06-13T06:27:30.945Z,99357.05
2018-06-13T06:29:59.562Z,99346.93
2018-06-13T06:32:31.601Z,99360.34
2018-06-13T06:34:59.663Z,99357.42
2018-06-13T06:37:28.098Z,99357.75
2018-06-13T06:39:55.702Z,99364.95
2018-06-13T06:42:23.682Z,99356.48
2018-06-13T06:44:51.480Z,99365.31
2018-06-13T06:47:19.085Z,99358.41
2018-06-13T06:49:47.075Z,99354.45
2018-06-13T06:52:15.394Z,99360.81
2018-06-13T06:54:42.970Z,99359.78
2018-06-13T06:57:11.125Z,99366.14
2018-06-13T06:59:39.352Z,99369.91
2018-06-13T07:02:07.007Z,99364.31
2018-06-13T07:04:39.056Z,99359.78
2018-06-13T07:07:06.646Z,99361.65
2018-06-13T07:09:34.253Z,99358.52
2018-06-13T07:12:03.234Z,99359.61
2018-06-13T07:14:31.430Z,99359.38
2018-06-13T07:17:00.933Z,99369.23
2018-06-13T07:19:28.805Z,99370.33
2018-06-13T07:21:56.357Z,99367.97
2018-06-13T07:24:23.917Z,99370.63
2018-06-13T07:26:52.631Z,99373.59
2018-06-13T07:29:20.221Z,99375.48
2018-06-13T07:31:47.825Z,99371.23
2018-06-13T07:34:15.718Z,99374.98
2018-06-13T07:36:43.327Z,99376.88
2018-06-13T07:39:10.904Z,99381.17
2018-06-13T07:41:38.793Z,99377.18
2018-06-13T07:44:07.249Z,99376.15
2018-06-13T07:46:34.831Z,99375.91
2018-06-13T07:49:02.698Z,99380.44
2018-06-13T07:51:30.254Z,99380.44
2018-06-13T07:53:57.826Z,99379.67
2018-06-13T07:56:25.749Z,99384.20
2018-06-13T07:58:53.312Z,99383.10
2018-06-13T08:01:20.880Z,99385.00
2018-06-13T08:03:49.540Z,99382.87
2018-06-13T08:06:18.060Z,99381.00
2018-06-13T08:08:45.675Z,99388.20
2018-06-13T08:11:19.323Z,99389.77
2018-06-13T08:13:47.913Z,99392.42
2018-06-13T08:16:15.756Z,99394.85
2018-06-13T08:18:44.506Z,99399.34
2018-06-13T08:21:12.071Z,99399.08
2018-06-13T08:23:40.282Z,99402.55
2018-06-13T08:26:07.901Z,99399.08
2018-06-13T08:28:36.406Z,99396.42
2018-06-13T08:31:03.964Z,99397.22
2018-06-13T08:33:31.551Z,99399.88
2018-06-13T09:55:14.824Z,99418.23
2018-06-13T09:57:44.309Z,99416.28
2018-06-13T10:02:21.207Z,99416.70
2018-06-13T10:04:48.889Z,99417.38
2018-06-13T10:07:16.937Z,99417.84
2018-06-13T10:09:44.510Z,99418.77
2018-06-13T10:12:12.142Z,99412.90
2018-06-13T10:18:28.075Z,99400.45
2018-06-13T10:20:56.573Z,99397.81
2018-06-13T10:23:25.658Z,99400.39
2018-06-13T10:25:53.519Z,99399.50
2018-06-13T10:28:21.182Z,99399.91
2018-06-13T10:30:50.069Z,99407.38
2018-06-13T10:33:17.642Z,99400.42
2018-06-13T10:35:45.241Z,99401.20
2018-06-13T10:38:13.377Z,99395.94
2018-06-13T10:40:40.971Z,99406.77
2018-06-13T10:43:08.534Z,99400.47
2018-06-13T10:45:36.450Z,99406.83
2018-06-13T10:48:04.701Z,99402.91
2018-06-13T10:50:32.554Z,99410.69
2018-06-13T10:53:01.515Z,99403.35
2018-06-13T10:55:29.132Z,99402.09
2018-06-13T11:00:30.107Z,99403.66
2018-06-13T11:02:57.669Z,99390.75
2018-06-13T11:05:25.228Z,99395.76
2018-06-13T11:07:53.088Z,99402.34
2018-06-13T11:10:21.018Z,99412.58
2018-06-13T11:12:49.356Z,99406.46
2018-06-13T11:15:18.841Z,99405.16
2018-06-13T11:17:46.477Z,99403.11
2018-06-13T11:20:14.125Z,99410.45
2018-06-13T11:22:43.200Z,99410.17
2018-06-13T11:25:10.782Z,99412.78
2018-06-13T11:27:38.547Z,99404.63
2018-06-13T11:30:06.587Z,99404.63
2018-06-13T11:32:35.662Z,99403.28
2018-06-13T11:35:10.303Z,99405.66
2018-06-13T11:37:38.419Z,99405.13
2018-06-13T11:40:06.135Z,99404.88
2018-06-13T11:42:33.734Z,99408.77
2018-06-13T11:45:02.572Z,99413.16
2018-06-13T11:47:31.271Z,99406.47
2018-06-13T11:49:58.871Z,99417.72
2018-06-13T11:52:28.936Z,99409.98
2018-06-13T11:54:59.459Z,99411.47
2018-06-13T11:57:32.277Z,99411.43
2018-06-13T12:00:01.141Z,99416.44
2018-06-13T12:02:28.711Z,99414.56
2018-06-13T12:04:56.566Z,99415.06
2018-06-13T12:07:24.427Z,99410.33
2018-06-13T12:09:52.140Z,99415.06
2018-06-13T12:12:19.937Z,99407.72
2018-06-13T12:14:50.471Z,99407.22
2018-06-13T12:17:18.062Z,99408.84
2018-06-13T12:19:45.627Z,99406.77
2018-06-13T12:22:14.376Z,99408.94
2018-06-13T12:24:41.939Z,99406.44
2018-06-13T12:27:09.676Z,99407.85
2018-06-13T12:29:39.408Z,99413.96
2018-06-13T12:32:06.972Z,99412.89
2018-06-13T12:34:34.577Z,99417.44
2018-06-13T12:37:03.254Z,99410.97
2018-06-13T12:39:31.661Z,99414.37
2018-06-13T12:42:00.581Z,99413.63
2018-06-13T12:44:29.872Z,99402.06
2018-06-13T12:46:59.645Z,99401.05
2018-06-13T12:49:29.503Z,99404.23
2018-06-13T12:51:58.360Z,99407.67
2018-06-13T12:54:27.308Z,99395.25
2018-06-13T12:56:56.647Z,99394.19
2018-06-13T12:59:25.455Z,99396.83
2018-06-13T13:01:53.029Z,99403.20
2018-06-13T13:04:20.578Z,99398.44
2018-06-13T13:06:48.438Z,99403.20
2018-06-13T13:09:16.784Z,99410.31
2018-06-13T13:11:45.546Z,99408.48
2018-06-13T13:14:19.034Z,99404.78
2018-06-13T13:16:46.728Z,99400.27
2018-06-13T13:19:14.805Z,99395.84
2018-06-13T13:21:43.098Z,99397.92
2018-06-13T13:24:11.790Z,99400.05
2018-06-13T13:26:39.459Z,99404.52
2018-06-13T13:29:08.466Z,99409.28
2018-06-13T13:31:36.359Z,99412.40
2018-06-13T13:34:05.990Z,99416.61
2018-06-13T13:36:34.026Z,99410.05
2018-06-13T13:39:01.681Z,99408.73
2018-06-13T13:41:33.592Z,99405.84
2018-06-13T13:44:01.505Z,99407.41
2018-06-13T13:46:31.590Z,99407.41
2018-06-13T13:49:00.115Z,99406.35
2018-06-13T13:51:28.651Z,99404.78
2018-06-13T13:53:56.556Z,99409.55
2018-06-13T13:56:25.054Z,99403.20
2018-06-13T13:58:54.517Z,99403.20
2018-06-13T14:01:22.210Z,99411.12
2018-06-13T14:03:49.854Z,99408.48
2018-06-13T14:06:19.502Z,99403.19
2018-06-13T14:08:47.088Z,99406.56
2018-06-13T14:11:14.714Z,99399.19
2018-06-13T14:13:42.590Z,99393.09
2018-06-13T14:16:11.339Z,99411.55
2018-06-13T14:18:39.564Z,99400.22
2018-06-13T14:21:10.406Z,99405.28
2018-06-13T14:23:38.558Z,99396.09
2018-06-13T14:26:08.258Z,99397.92
2018-06-13T14:28:36.134Z,99394.48
2018-06-13T14:31:05.344Z,99396.09
2018-06-13T14:33:34.102Z,99389.45
2018-06-13T14:36:03.400Z,99400.55
2018-06-13T14:38:33.674Z,99395.02
2018-06-13T14:41:01.532Z,99405.32
2018-06-13T14:43:31.666Z,99400.80
2018-06-13T14:46:05.513Z,99407.11
2018-06-13T14:48:34.370Z,99401.02
2018-06-13T14:51:02.019Z,99403.62
2018-06-13T14:53:29.641Z,99413.63
2018-06-13T14:56:02.495Z,99398.38
2018-06-13T14:58:34.789Z,99391.81
2018-06-13T15:01:04.756Z,99398.42
2018-06-13T15:03:35.437Z,99395.53
2018-06-13T15:06:04.241Z,99397.13
2018-06-13T15:08:31.833Z,99397.41
2018-06-13T15:10:59.432Z,99400.56
2018-06-13T15:13:27.360Z,99401.63
2018-06-13T15:15:56.383Z,99396.60
2018-06-13T15:18:25.294Z,99395.02
2018-06-13T15:20:54.035Z,99397.11
2018-06-13T15:23:21.620Z,99401.84
2018-06-13T15:25:49.271Z,99397.06
2018-06-13T15:28:18.918Z,99390.70
2018-06-13T15:30:46.498Z,99396.53
2018-06-13T15:33:14.640Z,99392.03
2018-06-13T15:35:53.434Z,99392.02
2018-06-13T15:38:22.245Z,99391.78
2018-06-13T15:40:50.094Z,99386.75
2018-06-13T15:43:17.675Z,99394.43
2018-06-13T15:45:45.282Z,99389.17
2018-06-13T15:48:12.849Z,99393.70
2018-06-13T15:50:40.466Z,99388.95
2018-06-13T15:53:09.940Z,99393.71
2018-06-13T15:55:38.300Z,99391.59
2018-06-13T15:58:05.874Z,99400.05
2018-06-13T16:00:33.758Z,99405.84
2018-06-13T16:03:01.373Z,99403.97
2018-06-13T16:05:29.752Z,99397.92
2018-06-13T16:07:58.439Z,99402.66
2018-06-13T16:10:26.682Z,99402.91
2018-06-13T16:12:55.500Z,99406.38
2018-06-13T16:15:23.427Z,99406.87
2018-06-13T16:17:52.022Z,99407.93
2018-06-13T16:32:14.236Z,99426.39
2018-06-13T16:34:42.128Z,99426.14
2018-06-13T16:37:10.289Z,99433.54
2018-06-13T16:39:37.894Z,99427.45
2018-06-13T16:42:06.795Z,99430.39
2018-06-13T16:44:35.625Z,99433.80
2018-06-13T16:47:04.225Z,99433.28
2018-06-13T16:49:33.320Z,99427.97
2018-06-13T16:52:01.181Z,99431.66
2018-06-13T16:54:28.813Z,99429.55
2018-06-13T16:56:56.815Z,99436.37
2018-06-13T16:59:25.200Z,99436.66
2018-06-13T17:01:55.769Z,99444.56
2018-06-13T17:04:24.187Z,99439.02
2018-06-13T17:06:51.992Z,99439.53
2018-06-13T17:09:20.183Z,99454.02
2018-06-13T17:11:49.726Z,99449.28
2018-06-13T17:14:20.054Z,99442.95
2018-06-13T17:16:48.562Z,99448.25
2018-06-13T17:19:16.436Z,99445.08
2018-06-13T17:21:44.802Z,99445.60
2018-06-13T17:24:12.622Z,99455.39
2018-06-13T17:26:41.484Z,99459.60
2018-06-13T17:29:09.884Z,99463.57
2018-06-13T17:31:39.736Z,99459.92
2018-06-13T17:34:08.711Z,99467.58
2018-06-13T17:36:36.584Z,99474.19
2018-06-13T17:39:06.032Z,99478.39
2018-06-13T17:41:35.461Z,99472.59
2018-06-13T17:44:03.630Z,99472.78
2018-06-13T17:46:31.287Z,99486.77
2018-06-13T17:49:00.012Z,99493.33
2018-06-13T17:51:28.488Z,99498.31
2018-06-13T17:53:56.898Z,99495.09
2018-06-13T17:56:27.601Z,99494.27
2018-06-13T17:58:57.371Z,99495.28
2018-06-13T18:01:24.972Z,99499.20
2018-06-13T18:03:52.977Z,99498.90
2018-06-13T18:06:21.283Z,99496.52
2018-06-13T18:08:51.128Z,99503.58
2018-06-13T18:11:19.016Z,99504.31
2018-06-13T18:13:47.247Z,99506.42
2018-06-13T18:16:17.702Z,99514.02
2018-06-13T18:18:46.646Z,99517.45
2018-06-13T18:21:14.237Z,99512.98
2018-06-13T18:23:42.448Z,99506.91
2018-06-13T18:26:10.790Z,99507.14
2018-06-13T18:28:38.466Z,99502.67
2018-06-13T18:31:06.055Z,99507.64
2018-06-13T18:33:35.525Z,99508.13
2018-06-13T18:36:03.445Z,99507.84
2018-06-13T18:38:32.671Z,99502.60
2018-06-13T18:41:01.465Z,99498.91
2018-06-13T18:43:29.083Z,99497.84
2018-06-13T18:45:58.958Z,99495.22
2018-06-13T18:48:26.844Z,99495.51
2018-06-13T18:50:54.416Z,99499.98
2018-06-13T18:53:22.415Z,99503.92
2018-06-13T18:55:59.339Z,99498.14
2018-06-13T18:58:28.976Z,99498.19
2018-06-13T19:00:58.176Z,99496.38
2018-06-13T19:03:28.183Z,99495.52
2018-06-13T19:05:57.258Z,99500.41
2018-06-13T19:08:24.820Z,99497.37
2018-06-13T19:10:56.209Z,99497.94
2018-06-13T19:13:23.809Z,99493.16
2018-06-13T19:15:51.424Z,99487.61
2018-06-13T19:18:20.281Z,99497.64
2018-06-13T19:20:49.280Z,99489.73
2018-06-13T19:23:17.739Z,99494.74
2018-06-13T19:25:46.619Z,99492.38
2018-06-13T19:28:15.321Z,99501.59
2018-06-13T19:30:42.908Z,99507.06
2018-06-13T19:33:11.480Z,99503.34
2018-06-13T19:35:41.736Z,99497.28
2018-06-13T19:38:09.321Z,99504.64
2018-06-13T19:40:39.241Z,99501.98
2018-06-13T19:43:10.863Z,99511.98
2018-06-13T19:45:38.765Z,99506.17
2018-06-13T19:48:11.980Z,99496.38
2018-06-13T19:50:39.607Z,99488.73
2018-06-13T19:53:12.188Z,99496.86
2018-06-13T19:55:45.150Z,99494.70
2018-06-13T19:58:12.775Z,99497.31
2018-06-13T20:00:40.685Z,99499.30
2018-06-13T20:05:14.655Z,99505.83
2018-06-13T20:07:42.866Z,99502.02
2018-06-13T20:10:11.685Z,99499.80
2018-06-13T20:12:45.317Z,99501.28
2018-06-13T20:15:18.688Z,99502.25
2018-06-13T20:17:51.352Z,99509.28
2018-06-13T20:20:19.016Z,99512.59
2018-06-13T20:22:48.459Z,99523.27
2018-06-13T20:25:23.162Z,99521.34
2018-06-13T20:27:55.723Z,99524.88
2018-06-13T20:31:31.738Z,99538.48
2018-06-13T20:33:59.342Z,99539.97
2018-06-13T20:36:27.304Z,99537.28
2018-06-13T20:38:56.348Z,99543.31
2018-06-13T20:41:25.588Z,99539.78
2018-06-13T20:43:55.464Z,99537.37
2018-06-13T20:46:26.047Z,99538.91
2018-06-13T20:48:54.246Z,99544.34
2018-06-13T20:51:24.558Z,99540.84
2018-06-13T20:53:52.250Z,99542.32
2018-06-13T20:56:21.004Z,99552.98
2018-06-13T20:58:51.716Z,99559.21
2018-06-13T21:01:21.380Z,99556.55
2018-06-13T21:03:51.567Z,99555.44
2018-06-13T21:06:19.523Z,99544.13
2018-06-13T21:08:47.135Z,99548.53
2018-06-13T21:11:14.708Z,99553.20
2018-06-13T21:13:42.716Z,99555.45
2018-06-13T21:16:10.309Z,99548.00
2018-06-13T21:18:37.947Z,99533.14
2018-06-13T21:21:06.862Z,99541.58
2018-06-13T21:23:35.795Z,99542.95
2018-06-13T21:26:03.389Z,99549.61
2018-06-13T21:28:32.139Z,99547.39
2018-06-13T21:31:00.468Z,99549.16
2018-06-13T21:33:28.281Z,99547.34
2018-06-13T21:35:56.968Z,99548.40
2018-06-13T21:38:24.556Z,99541.56
2018-06-13T21:40:54.001Z,99542.88
2018-06-13T21:43:24.347Z,99540.26
2018-06-13T21:45:53.292Z,99535.73
2018-06-13T21:48:23.824Z,99532.98
2018-06-13T21:50:53.454Z,99526.80
2018-06-13T21:53:21.503Z,99519.42
2018-06-13T21:55:49.914Z,99518.25
2018-06-13T21:58:19.390Z,99510.02
2018-06-13T22:00:47.021Z,99511.83
2018-06-13T22:03:14.596Z,99509.21
2018-06-13T22:05:43.471Z,99511.09
2018-06-13T22:08:12.026Z,99515.03
2018-06-13T22:10:40.431Z,99509.21
2018-06-13T22:13:08.495Z,99513.95
2018-06-13T22:15:36.237Z,99511.05
2018-06-13T22:18:04.003Z,99513.90
2018-06-13T22:20:33.471Z,99517.20
2018-06-13T22:23:01.373Z,99514.23
2018-06-13T22:25:29.680Z,99507.69
2018-06-13T22:27:58.291Z,99512.64
2018-06-13T22:30:26.913Z,99519.20
2018-06-13T22:32:55.203Z,99513.69
2018-06-13T22:35:23.761Z,99518.06
2018-06-13T22:37:51.679Z,99525.09
2018-06-13T22:40:19.265Z,99528.17
2018-06-13T22:42:50.420Z,99525.22
2018-06-13T22:45:18.615Z,99525.45
2018-06-13T22:47:46.612Z,99523.31
2018-06-13T22:50:17.794Z,99525.61
2018-06-13T22:52:47.059Z,99523.39
2018-06-13T22:55:16.224Z,99526.77
2018-06-13T22:57:44.235Z,99523.06
2018-06-13T23:00:12.818Z,99521.98
2018-06-13T23:02:41.502Z,99526.08
2018-06-13T23:05:09.332Z,99510.55
2018-06-13T23:07:37.565Z,99517.84
2018-06-13T23:10:05.180Z,99515.98
2018-06-13T23:12:32.767Z,99514.40
2018-06-13T23:15:00.341Z,99505.96
2018-06-13T23:17:31.375Z,99507.97
2018-06-13T23:19:58.935Z,99519.11
2018-06-13T23:22:26.491Z,99520.14
2018-06-13T23:24:54.471Z,99522.20
2018-06-13T23:27:22.043Z,99520.09
2018-06-13T23:29:50.344Z,99518.17
2018-06-13T23:32:18.297Z,99521.44
2018-06-13T23:34:45.887Z,99518.17
2018-06-13T23:37:13.485Z,99517.09
2018-06-13T23:39:41.663Z,99508.97
2018-06-13T23:42:09.531Z,99508.41
2018-06-13T23:44:37.424Z,99510.44
2018-06-13T23:47:05.686Z,99508.30
2018-06-13T23:49:34.468Z,99506.37
2018-06-13T23:52:02.440Z,99510.97
2018-06-13T23:54:30.088Z,99513.69
2018-06-13T23:56:58.294Z,99519.61
2018-06-13T23:59:27.377Z,99517.75
